sensor_id;sensor_type;location;lat;lon;timestamp;temperature;humidity
39925;DHT22;25592;49.986;11.618;2023-10-13T00:00:52;17.90;99.50
39925;DHT22;25592;49.986;11.618;2023-10-13T00:03:43;17.90;99.70
39925;DHT22;25592;49.986;11.618;2023-10-13T00:06:28;17.90;99.80
39925;DHT22;25592;49.986;11.618;2023-10-13T00:09:14;17.80;99.80
39925;DHT22;25592;49.986;11.618;2023-10-13T00:12:00;17.80;99.90
39925;DHT22;25592;49.986;11.618;2023-10-13T00:14:45;17.80;99.90
39925;DHT22;25592;49.986;11.618;2023-10-13T00:17:31;17.90;99.90
39925;DHT22;25592;49.986;11.618;2023-10-13T00:20:17;17.90;99.60
39925;DHT22;25592;49.986;11.618;2023-10-13T00:23:15;18.00;99.40
39925;DHT22;25592;49.986;11.618;2023-10-13T00:26:05;17.90;99.20
39925;DHT22;25592;49.986;11.618;2023-10-13T00:28:55;18.00;99.00
39925;DHT22;25592;49.986;11.618;2023-10-13T00:32:01;18.00;99.30
39925;DHT22;25592;49.986;11.618;2023-10-13T00:34:48;17.90;99.70
39925;DHT22;25592;49.986;11.618;2023-10-13T00:37:33;17.90;99.10
39925;DHT22;25592;49.986;11.618;2023-10-13T00:40:27;17.90;99.20
39925;DHT22;25592;49.986;11.618;2023-10-13T00:43:33;17.90;99.30
39925;DHT22;25592;49.986;11.618;2023-10-13T00:46:19;17.90;99.50
39925;DHT22;25592;49.986;11.618;2023-10-13T00:49:06;17.90;99.60
39925;DHT22;25592;49.986;11.618;2023-10-13T00:51:54;17.90;99.70
39925;DHT22;25592;49.986;11.618;2023-10-13T00:54:42;17.80;99.80
39925;DHT22;25592;49.986;11.618;2023-10-13T00:57:31;17.90;99.50
39925;DHT22;25592;49.986;11.618;2023-10-13T01:00:17;18.00;99.30
39925;DHT22;25592;49.986;11.618;2023-10-13T01:03:10;18.00;98.90
39925;DHT22;25592;49.986;11.618;2023-10-13T01:06:00;18.00;99.00
39925;DHT22;25592;49.986;11.618;2023-10-13T01:08:48;18.00;98.80
39925;DHT22;25592;49.986;11.618;2023-10-13T01:11:38;18.00;98.90
39925;DHT22;25592;49.986;11.618;2023-10-13T01:14:23;18.00;98.70
39925;DHT22;25592;49.986;11.618;2023-10-13T01:17:13;17.90;99.30
39925;DHT22;25592;49.986;11.618;2023-10-13T01:19:59;18.00;99.00
39925;DHT22;25592;49.986;11.618;2023-10-13T01:22:45;17.90;99.30
39925;DHT22;25592;49.986;11.618;2023-10-13T01:25:40;18.00;99.00
39925;DHT22;25592;49.986;11.618;2023-10-13T01:28:26;17.90;98.80
39925;DHT22;25592;49.986;11.618;2023-10-13T01:31:11;18.00;99.10
39925;DHT22;25592;49.986;11.618;2023-10-13T01:34:09;18.00;99.30
39925;DHT22;25592;49.986;11.618;2023-10-13T01:36:57;18.00;99.00
39925;DHT22;25592;49.986;11.618;2023-10-13T01:39:50;17.90;98.80
39925;DHT22;25592;49.986;11.618;2023-10-13T01:42:36;17.90;98.90
39925;DHT22;25592;49.986;11.618;2023-10-13T01:45:22;18.00;99.30
39925;DHT22;25592;49.986;11.618;2023-10-13T01:48:14;17.90;99.30
39925;DHT22;25592;49.986;11.618;2023-10-13T01:51:03;17.90;99.50
39925;DHT22;25592;49.986;11.618;2023-10-13T01:53:50;17.90;99.20
39925;DHT22;25592;49.986;11.618;2023-10-13T01:56:41;17.90;99.40
39925;DHT22;25592;49.986;11.618;2023-10-13T01:59:29;17.90;99.10
39925;DHT22;25592;49.986;11.618;2023-10-13T02:02:16;17.90;99.60
39925;DHT22;25592;49.986;11.618;2023-10-13T02:05:16;17.90;99.40
39925;DHT22;25592;49.986;11.618;2023-10-13T02:08:02;17.90;99.80
39925;DHT22;25592;49.986;11.618;2023-10-13T02:10:48;17.90;99.30
39925;DHT22;25592;49.986;11.618;2023-10-13T02:13:33;17.90;99.70
39925;DHT22;25592;49.986;11.618;2023-10-13T02:16:26;17.90;99.60
39925;DHT22;25592;49.986;11.618;2023-10-13T02:19:11;17.90;99.90
39925;DHT22;25592;49.986;11.618;2023-10-13T02:22:00;17.90;99.60
39925;DHT22;25592;49.986;11.618;2023-10-13T02:24:47;17.90;99.70
39925;DHT22;25592;49.986;11.618;2023-10-13T02:27:37;17.90;99.80
39925;DHT22;25592;49.986;11.618;2023-10-13T02:30:28;17.80;99.90
39925;DHT22;25592;49.986;11.618;2023-10-13T02:33:15;17.80;99.70
39925;DHT22;25592;49.986;11.618;2023-10-13T02:36:06;17.90;99.50
39925;DHT22;25592;49.986;11.618;2023-10-13T02:38:51;17.90;99.50
39925;DHT22;25592;49.986;11.618;2023-10-13T02:41:37;17.80;99.80
39925;DHT22;25592;49.986;11.618;2023-10-13T02:44:23;17.90;99.40
39925;DHT22;25592;49.986;11.618;2023-10-13T02:47:18;17.90;99.30
39925;DHT22;25592;49.986;11.618;2023-10-13T02:50:05;17.80;99.90
39925;DHT22;25592;49.986;11.618;2023-10-13T02:52:57;17.80;99.50
39925;DHT22;25592;49.986;11.618;2023-10-13T02:55:53;17.80;99.90
39925;DHT22;25592;49.986;11.618;2023-10-13T02:58:41;17.70;99.90
39925;DHT22;25592;49.986;11.618;2023-10-13T03:01:35;17.80;99.90
39925;DHT22;25592;49.986;11.618;2023-10-13T03:04:21;17.80;99.90
39925;DHT22;25592;49.986;11.618;2023-10-13T03:07:11;17.70;99.90
39925;DHT22;25592;49.986;11.618;2023-10-13T03:10:00;17.70;99.90
39925;DHT22;25592;49.986;11.618;2023-10-13T03:12:55;17.80;99.90
39925;DHT22;25592;49.986;11.618;2023-10-13T03:15:40;17.80;99.80
39925;DHT22;25592;49.986;11.618;2023-10-13T03:18:26;17.80;99.70
39925;DHT22;25592;49.986;11.618;2023-10-13T03:21:14;17.80;99.80
39925;DHT22;25592;49.986;11.618;2023-10-13T03:24:13;17.80;99.90
39925;DHT22;25592;49.986;11.618;2023-10-13T03:27:05;17.80;99.90
39925;DHT22;25592;49.986;11.618;2023-10-13T03:29:54;17.80;99.90
39925;DHT22;25592;49.986;11.618;2023-10-13T03:32:40;17.90;99.70
39925;DHT22;25592;49.986;11.618;2023-10-13T03:35:34;17.90;99.90
39925;DHT22;25592;49.986;11.618;2023-10-13T03:38:23;17.90;99.90
39925;DHT22;25592;49.986;11.618;2023-10-13T03:41:12;17.90;99.90
39925;DHT22;25592;49.986;11.618;2023-10-13T03:44:05;17.90;99.90
39925;DHT22;25592;49.986;11.618;2023-10-13T03:46:58;17.90;99.90
39925;DHT22;25592;49.986;11.618;2023-10-13T03:49:54;17.90;99.80
39925;DHT22;25592;49.986;11.618;2023-10-13T03:52:59;17.90;99.70
39925;DHT22;25592;49.986;11.618;2023-10-13T03:55:45;17.90;99.90
39925;DHT22;25592;49.986;11.618;2023-10-13T03:58:41;17.90;99.90
39925;DHT22;25592;49.986;11.618;2023-10-13T04:01:33;17.90;99.90
39925;DHT22;25592;49.986;11.618;2023-10-13T04:04:37;17.90;99.90
39925;DHT22;25592;49.986;11.618;2023-10-13T04:07:38;17.80;99.90
39925;DHT22;25592;49.986;11.618;2023-10-13T04:10:47;17.80;99.90
39925;DHT22;25592;49.986;11.618;2023-10-13T04:13:38;17.80;99.90
39925;DHT22;25592;49.986;11.618;2023-10-13T04:16:55;17.80;99.90
39925;DHT22;25592;49.986;11.618;2023-10-13T04:19:41;17.70;99.90
39925;DHT22;25592;49.986;11.618;2023-10-13T04:22:45;17.70;99.90
39925;DHT22;25592;49.986;11.618;2023-10-13T04:25:31;17.70;99.90
39925;DHT22;25592;49.986;11.618;2023-10-13T04:28:29;17.80;99.90
39925;DHT22;25592;49.986;11.618;2023-10-13T04:31:22;17.80;99.90
39925;DHT22;25592;49.986;11.618;2023-10-13T04:34:28;17.80;99.90
39925;DHT22;25592;49.986;11.618;2023-10-13T04:37:20;17.90;99.90
39925;DHT22;25592;49.986;11.618;2023-10-13T04:40:14;17.80;99.90
39925;DHT22;25592;49.986;11.618;2023-10-13T04:43:03;17.90;99.90
39925;DHT22;25592;49.986;11.618;2023-10-13T04:46:11;17.80;99.90
39925;DHT22;25592;49.986;11.618;2023-10-13T04:49:15;17.70;99.90
39925;DHT22;25592;49.986;11.618;2023-10-13T04:52:14;17.80;99.90
39925;DHT22;25592;49.986;11.618;2023-10-13T04:55:20;17.70;99.90
39925;DHT22;25592;49.986;11.618;2023-10-13T04:58:20;17.60;99.90
39925;DHT22;25592;49.986;11.618;2023-10-13T05:01:17;17.50;99.90
39925;DHT22;25592;49.986;11.618;2023-10-13T05:04:09;17.60;99.90
39925;DHT22;25592;49.986;11.618;2023-10-13T05:07:00;17.60;99.90
39925;DHT22;25592;49.986;11.618;2023-10-13T05:10:06;17.60;99.90
39925;DHT22;25592;49.986;11.618;2023-10-13T05:13:10;17.70;99.90
39925;DHT22;25592;49.986;11.618;2023-10-13T05:16:14;17.70;99.90
39925;DHT22;25592;49.986;11.618;2023-10-13T05:19:18;17.70;99.90
39925;DHT22;25592;49.986;11.618;2023-10-13T05:22:22;17.80;99.90
39925;DHT22;25592;49.986;11.618;2023-10-13T05:25:25;17.70;99.90
39925;DHT22;25592;49.986;11.618;2023-10-13T05:28:30;17.80;99.90
39925;DHT22;25592;49.986;11.618;2023-10-13T05:31:33;17.80;99.90
39925;DHT22;25592;49.986;11.618;2023-10-13T05:34:38;17.80;99.90
39925;DHT22;25592;49.986;11.618;2023-10-13T05:37:42;17.70;99.90
39925;DHT22;25592;49.986;11.618;2023-10-13T05:40:56;17.80;99.90
39925;DHT22;25592;49.986;11.618;2023-10-13T05:44:05;17.80;99.90
39925;DHT22;25592;49.986;11.618;2023-10-13T05:47:09;17.80;99.90
39925;DHT22;25592;49.986;11.618;2023-10-13T05:50:29;17.70;99.90
39925;DHT22;25592;49.986;11.618;2023-10-13T05:53:34;17.80;99.90
39925;DHT22;25592;49.986;11.618;2023-10-13T05:56:42;17.80;99.90
39925;DHT22;25592;49.986;11.618;2023-10-13T05:59:47;17.70;99.90
39925;DHT22;25592;49.986;11.618;2023-10-13T06:02:50;17.70;99.90
39925;DHT22;25592;49.986;11.618;2023-10-13T06:05:54;17.60;99.90
39925;DHT22;25592;49.986;11.618;2023-10-13T06:09:06;17.60;99.90
39925;DHT22;25592;49.986;11.618;2023-10-13T06:12:10;17.70;99.90
39925;DHT22;25592;49.986;11.618;2023-10-13T06:15:14;17.70;99.90
39925;DHT22;25592;49.986;11.618;2023-10-13T06:18:17;17.70;99.90
39925;DHT22;25592;49.986;11.618;2023-10-13T06:21:22;17.60;99.90
39925;DHT22;25592;49.986;11.618;2023-10-13T06:24:26;17.80;99.90
39925;DHT22;25592;49.986;11.618;2023-10-13T06:27:30;17.70;99.90
39925;DHT22;25592;49.986;11.618;2023-10-13T06:30:34;17.60;99.90
39925;DHT22;25592;49.986;11.618;2023-10-13T06:33:19;17.60;99.90
39925;DHT22;25592;49.986;11.618;2023-10-13T06:36:07;17.70;99.90
39925;DHT22;25592;49.986;11.618;2023-10-13T06:38:55;17.70;99.90
39925;DHT22;25592;49.986;11.618;2023-10-13T06:41:41;17.70;99.90
39925;DHT22;25592;49.986;11.618;2023-10-13T06:44:26;17.70;99.90
39925;DHT22;25592;49.986;11.618;2023-10-13T06:47:14;17.60;99.90
39925;DHT22;25592;49.986;11.618;2023-10-13T06:49:59;17.70;99.90
39925;DHT22;25592;49.986;11.618;2023-10-13T06:52:46;17.70;99.90
39925;DHT22;25592;49.986;11.618;2023-10-13T06:55:32;17.80;99.90
39925;DHT22;25592;49.986;11.618;2023-10-13T06:58:20;17.90;99.90
39925;DHT22;25592;49.986;11.618;2023-10-13T07:01:09;18.00;99.90
39925;DHT22;25592;49.986;11.618;2023-10-13T07:04:00;17.90;99.90
39925;DHT22;25592;49.986;11.618;2023-10-13T07:06:48;17.90;99.90
39925;DHT22;25592;49.986;11.618;2023-10-13T07:09:34;18.00;99.90
39925;DHT22;25592;49.986;11.618;2023-10-13T07:12:20;18.00;99.90
39925;DHT22;25592;49.986;11.618;2023-10-13T07:15:11;18.10;99.90
39925;DHT22;25592;49.986;11.618;2023-10-13T07:18:04;18.20;99.90
39925;DHT22;25592;49.986;11.618;2023-10-13T07:20:51;18.20;99.60
39925;DHT22;25592;49.986;11.618;2023-10-13T07:23:40;18.30;99.50
39925;DHT22;25592;49.986;11.618;2023-10-13T07:26:28;18.30;99.30
39925;DHT22;25592;49.986;11.618;2023-10-13T07:29:14;18.30;99.40
39925;DHT22;25592;49.986;11.618;2023-10-13T07:32:00;18.40;99.40
39925;DHT22;25592;49.986;11.618;2023-10-13T07:34:48;18.50;99.10
39925;DHT22;25592;49.986;11.618;2023-10-13T07:37:34;18.50;99.20
39925;DHT22;25592;49.986;11.618;2023-10-13T07:40:21;18.60;98.90
39925;DHT22;25592;49.986;11.618;2023-10-13T07:43:24;18.70;98.90
39925;DHT22;25592;49.986;11.618;2023-10-13T07:46:12;18.70;98.90
39925;DHT22;25592;49.986;11.618;2023-10-13T07:48:58;18.70;98.70
39925;DHT22;25592;49.986;11.618;2023-10-13T07:52:13;18.80;98.50
39925;DHT22;25592;49.986;11.618;2023-10-13T07:55:06;18.90;98.60
39925;DHT22;25592;49.986;11.618;2023-10-13T07:58:00;19.00;98.20
39925;DHT22;25592;49.986;11.618;2023-10-13T08:00:52;19.10;97.90
39925;DHT22;25592;49.986;11.618;2023-10-13T08:03:45;19.10;98.10
39925;DHT22;25592;49.986;11.618;2023-10-13T08:06:30;19.10;97.50
39925;DHT22;25592;49.986;11.618;2023-10-13T08:09:16;19.10;97.60
39925;DHT22;25592;49.986;11.618;2023-10-13T08:12:25;19.10;97.90
39925;DHT22;25592;49.986;11.618;2023-10-13T08:15:11;19.10;97.50
39925;DHT22;25592;49.986;11.618;2023-10-13T08:18:06;19.10;97.70
39925;DHT22;25592;49.986;11.618;2023-10-13T08:21:03;19.30;97.20
39925;DHT22;25592;49.986;11.618;2023-10-13T08:23:50;19.10;97.40
39925;DHT22;25592;49.986;11.618;2023-10-13T08:26:38;19.10;97.30
39925;DHT22;25592;49.986;11.618;2023-10-13T08:29:43;19.20;96.70
39925;DHT22;25592;49.986;11.618;2023-10-13T08:32:42;19.20;96.70
39925;DHT22;25592;49.986;11.618;2023-10-13T08:35:40;19.30;96.40
39925;DHT22;25592;49.986;11.618;2023-10-13T08:38:39;19.30;96.20
39925;DHT22;25592;49.986;11.618;2023-10-13T08:41:36;19.30;96.00
39925;DHT22;25592;49.986;11.618;2023-10-13T08:44:44;19.30;96.00
39925;DHT22;25592;49.986;11.618;2023-10-13T08:47:38;19.30;95.80
39925;DHT22;25592;49.986;11.618;2023-10-13T08:50:24;19.40;95.60
39925;DHT22;25592;49.986;11.618;2023-10-13T08:53:29;19.30;95.30
39925;DHT22;25592;49.986;11.618;2023-10-13T08:56:18;19.30;95.70
39925;DHT22;25592;49.986;11.618;2023-10-13T08:59:16;19.30;95.50
39925;DHT22;25592;49.986;11.618;2023-10-13T09:02:14;19.50;95.40
39925;DHT22;25592;49.986;11.618;2023-10-13T09:05:07;19.50;95.20
39925;DHT22;25592;49.986;11.618;2023-10-13T09:07:54;19.50;95.20
39925;DHT22;25592;49.986;11.618;2023-10-13T09:10:48;19.70;94.60
39925;DHT22;25592;49.986;11.618;2023-10-13T09:13:51;19.80;94.80
39925;DHT22;25592;49.986;11.618;2023-10-13T09:16:37;19.80;94.70
39925;DHT22;25592;49.986;11.618;2023-10-13T09:19:51;19.90;94.60
39925;DHT22;25592;49.986;11.618;2023-10-13T09:22:43;20.00;94.70
39925;DHT22;25592;49.986;11.618;2023-10-13T09:25:40;20.00;94.60
39925;DHT22;25592;49.986;11.618;2023-10-13T09:28:39;20.10;94.40
39925;DHT22;25592;49.986;11.618;2023-10-13T09:31:24;20.10;94.40
39925;DHT22;25592;49.986;11.618;2023-10-13T09:34:20;20.20;94.60
39925;DHT22;25592;49.986;11.618;2023-10-13T09:37:09;20.40;94.20
39925;DHT22;25592;49.986;11.618;2023-10-13T09:39:56;20.70;93.70
39925;DHT22;25592;49.986;11.618;2023-10-13T09:42:51;20.90;93.10
39925;DHT22;25592;49.986;11.618;2023-10-13T09:45:36;21.00;93.00
39925;DHT22;25592;49.986;11.618;2023-10-13T09:48:33;21.00;93.10
39925;DHT22;25592;49.986;11.618;2023-10-13T09:51:18;21.10;93.10
39925;DHT22;25592;49.986;11.618;2023-10-13T09:57:20;21.70;92.80
39925;DHT22;25592;49.986;11.618;2023-10-13T10:00:30;22.10;92.40
39925;DHT22;25592;49.986;11.618;2023-10-13T10:03:47;22.30;92.00
39925;DHT22;25592;49.986;11.618;2023-10-13T10:06:37;22.30;91.90
39925;DHT22;25592;49.986;11.618;2023-10-13T10:09:32;22.30;91.30
39925;DHT22;25592;49.986;11.618;2023-10-13T10:12:48;22.20;91.30
39925;DHT22;25592;49.986;11.618;2023-10-13T10:15:35;22.20;90.40
39925;DHT22;25592;49.986;11.618;2023-10-13T10:18:31;22.20;90.50
39925;DHT22;25592;49.986;11.618;2023-10-13T10:21:16;22.20;91.00
39925;DHT22;25592;49.986;11.618;2023-10-13T10:24:24;22.30;90.90
39925;DHT22;25592;49.986;11.618;2023-10-13T10:27:24;22.30;90.90
39925;DHT22;25592;49.986;11.618;2023-10-13T10:30:10;22.30;90.80
39925;DHT22;25592;49.986;11.618;2023-10-13T10:32:59;22.30;90.60
39925;DHT22;25592;49.986;11.618;2023-10-13T10:35:46;22.50;90.40
39925;DHT22;25592;49.986;11.618;2023-10-13T10:38:31;22.70;90.60
39925;DHT22;25592;49.986;11.618;2023-10-13T10:41:16;22.80;90.50
39925;DHT22;25592;49.986;11.618;2023-10-13T10:44:14;22.60;90.50
39925;DHT22;25592;49.986;11.618;2023-10-13T10:47:12;22.60;90.40
39925;DHT22;25592;49.986;11.618;2023-10-13T10:50:05;22.60;90.50
39925;DHT22;25592;49.986;11.618;2023-10-13T10:53:05;22.60;90.20
39925;DHT22;25592;49.986;11.618;2023-10-13T10:55:54;22.50;90.70
39925;DHT22;25592;49.986;11.618;2023-10-13T10:58:58;22.60;90.40
39925;DHT22;25592;49.986;11.618;2023-10-13T11:01:46;22.70;90.40
39925;DHT22;25592;49.986;11.618;2023-10-13T11:04:37;22.70;90.50
39925;DHT22;25592;49.986;11.618;2023-10-13T11:07:45;22.80;90.30
39925;DHT22;25592;49.986;11.618;2023-10-13T11:10:35;22.80;90.60
39925;DHT22;25592;49.986;11.618;2023-10-13T11:13:23;22.80;90.40
39925;DHT22;25592;49.986;11.618;2023-10-13T11:16:09;22.80;90.40
39925;DHT22;25592;49.986;11.618;2023-10-13T11:19:04;22.80;85.60
39925;DHT22;25592;49.986;11.618;2023-10-13T11:21:53;23.00;86.00
39925;DHT22;25592;49.986;11.618;2023-10-13T11:24:40;23.20;85.40
39925;DHT22;25592;49.986;11.618;2023-10-13T11:27:30;23.10;83.90
39925;DHT22;25592;49.986;11.618;2023-10-13T11:30:31;23.10;84.50
39925;DHT22;25592;49.986;11.618;2023-10-13T11:33:27;22.90;83.90
39925;DHT22;25592;49.986;11.618;2023-10-13T11:36:16;22.80;84.00
39925;DHT22;25592;49.986;11.618;2023-10-13T11:39:10;22.80;83.50
39925;DHT22;25592;49.986;11.618;2023-10-13T11:42:03;23.10;84.70
39925;DHT22;25592;49.986;11.618;2023-10-13T11:44:48;23.10;84.20
39925;DHT22;25592;49.986;11.618;2023-10-13T11:47:46;23.10;84.10
39925;DHT22;25592;49.986;11.618;2023-10-13T11:50:44;23.20;84.30
39925;DHT22;25592;49.986;11.618;2023-10-13T11:53:31;23.30;83.70
39925;DHT22;25592;49.986;11.618;2023-10-13T11:56:17;23.40;83.50
39925;DHT22;25592;49.986;11.618;2023-10-13T11:59:02;23.40;83.10
39925;DHT22;25592;49.986;11.618;2023-10-13T12:01:49;23.40;82.30
39925;DHT22;25592;49.986;11.618;2023-10-13T12:04:54;23.30;83.10
39925;DHT22;25592;49.986;11.618;2023-10-13T12:07:42;23.50;82.30
39925;DHT22;25592;49.986;11.618;2023-10-13T12:10:31;23.50;82.50
39925;DHT22;25592;49.986;11.618;2023-10-13T12:13:21;23.50;82.10
39925;DHT22;25592;49.986;11.618;2023-10-13T12:16:07;23.50;82.20
39925;DHT22;25592;49.986;11.618;2023-10-13T12:18:54;23.70;81.90
39925;DHT22;25592;49.986;11.618;2023-10-13T12:21:40;23.90;80.70
39925;DHT22;25592;49.986;11.618;2023-10-13T12:24:28;24.10;81.00
39925;DHT22;25592;49.986;11.618;2023-10-13T12:27:37;24.20;80.10
39925;DHT22;25592;49.986;11.618;2023-10-13T12:30:30;24.40;79.60
39925;DHT22;25592;49.986;11.618;2023-10-13T12:33:35;24.60;79.30
39925;DHT22;25592;49.986;11.618;2023-10-13T12:36:25;24.90;79.00
39925;DHT22;25592;49.986;11.618;2023-10-13T12:39:16;25.00;77.40
39925;DHT22;25592;49.986;11.618;2023-10-13T12:42:20;24.90;76.70
39925;DHT22;25592;49.986;11.618;2023-10-13T12:45:24;25.10;76.70
39925;DHT22;25592;49.986;11.618;2023-10-13T12:48:29;25.20;76.00
39925;DHT22;25592;49.986;11.618;2023-10-13T12:51:33;25.30;75.70
39925;DHT22;25592;49.986;11.618;2023-10-13T12:54:19;25.20;75.20
39925;DHT22;25592;49.986;11.618;2023-10-13T12:57:08;25.40;74.50
39925;DHT22;25592;49.986;11.618;2023-10-13T12:59:55;25.50;75.20
39925;DHT22;25592;49.986;11.618;2023-10-13T13:02:40;25.80;76.10
39925;DHT22;25592;49.986;11.618;2023-10-13T13:05:27;25.70;74.40
39925;DHT22;25592;49.986;11.618;2023-10-13T13:08:16;25.60;75.00
39925;DHT22;25592;49.986;11.618;2023-10-13T13:11:08;25.50;74.70
39925;DHT22;25592;49.986;11.618;2023-10-13T13:13:53;25.60;74.80
39925;DHT22;25592;49.986;11.618;2023-10-13T13:16:39;25.70;74.10
39925;DHT22;25592;49.986;11.618;2023-10-13T13:19:25;25.50;74.20
39925;DHT22;25592;49.986;11.618;2023-10-13T13:22:11;25.50;74.00
39925;DHT22;25592;49.986;11.618;2023-10-13T13:24:57;25.50;74.30
39925;DHT22;25592;49.986;11.618;2023-10-13T13:27:43;25.40;73.30
39925;DHT22;25592;49.986;11.618;2023-10-13T13:30:28;25.50;74.40
39925;DHT22;25592;49.986;11.618;2023-10-13T13:33:18;25.80;74.00
39925;DHT22;25592;49.986;11.618;2023-10-13T13:36:10;25.90;71.80
39925;DHT22;25592;49.986;11.618;2023-10-13T13:39:02;25.90;72.50
39925;DHT22;25592;49.986;11.618;2023-10-13T13:41:47;26.10;71.60
39925;DHT22;25592;49.986;11.618;2023-10-13T13:44:35;26.00;71.90
39925;DHT22;25592;49.986;11.618;2023-10-13T13:47:23;26.00;71.80
39925;DHT22;25592;49.986;11.618;2023-10-13T13:50:09;26.00;71.50
39925;DHT22;25592;49.986;11.618;2023-10-13T13:53:02;26.00;72.10
39925;DHT22;25592;49.986;11.618;2023-10-13T13:55:54;26.20;72.40
39925;DHT22;25592;49.986;11.618;2023-10-13T13:58:40;26.10;71.40
39925;DHT22;25592;49.986;11.618;2023-10-13T14:01:25;26.40;71.70
39925;DHT22;25592;49.986;11.618;2023-10-13T14:04:11;26.70;72.10
39925;DHT22;25592;49.986;11.618;2023-10-13T14:06:59;26.90;71.70
39925;DHT22;25592;49.986;11.618;2023-10-13T14:09:45;26.80;70.10
39925;DHT22;25592;49.986;11.618;2023-10-13T14:12:31;26.80;71.10
39925;DHT22;25592;49.986;11.618;2023-10-13T14:15:27;26.90;71.00
39925;DHT22;25592;49.986;11.618;2023-10-13T14:18:13;26.90;70.70
39925;DHT22;25592;49.986;11.618;2023-10-13T14:21:02;26.60;70.40
39925;DHT22;25592;49.986;11.618;2023-10-13T14:23:50;26.60;70.60
39925;DHT22;25592;49.986;11.618;2023-10-13T14:26:39;26.80;71.40
39925;DHT22;25592;49.986;11.618;2023-10-13T14:29:26;27.00;71.30
39925;DHT22;25592;49.986;11.618;2023-10-13T14:32:13;26.90;70.60
39925;DHT22;25592;49.986;11.618;2023-10-13T14:35:00;26.80;70.80
39925;DHT22;25592;49.986;11.618;2023-10-13T14:37:56;26.90;71.50
39925;DHT22;25592;49.986;11.618;2023-10-13T14:40:42;27.10;71.10
39925;DHT22;25592;49.986;11.618;2023-10-13T14:43:27;26.90;69.70
39925;DHT22;25592;49.986;11.618;2023-10-13T14:46:17;26.80;70.20
39925;DHT22;25592;49.986;11.618;2023-10-13T14:49:04;26.90;70.10
39925;DHT22;25592;49.986;11.618;2023-10-13T14:51:50;26.90;70.40
39925;DHT22;25592;49.986;11.618;2023-10-13T14:54:36;26.80;70.90
39925;DHT22;25592;49.986;11.618;2023-10-13T14:57:22;26.70;71.10
39925;DHT22;25592;49.986;11.618;2023-10-13T15:00:10;26.70;71.50
39925;DHT22;25592;49.986;11.618;2023-10-13T15:03:01;26.50;71.30
39925;DHT22;25592;49.986;11.618;2023-10-13T15:05:47;26.30;71.40
39925;DHT22;25592;49.986;11.618;2023-10-13T15:08:32;26.30;71.60
39925;DHT22;25592;49.986;11.618;2023-10-13T15:11:18;26.40;72.00
39925;DHT22;25592;49.986;11.618;2023-10-13T15:14:04;26.40;72.60
39925;DHT22;25592;49.986;11.618;2023-10-13T15:16:51;26.50;72.70
39925;DHT22;25592;49.986;11.618;2023-10-13T15:19:40;26.60;72.30
39925;DHT22;25592;49.986;11.618;2023-10-13T15:22:28;26.60;72.70
39925;DHT22;25592;49.986;11.618;2023-10-13T15:25:13;26.30;72.10
39925;DHT22;25592;49.986;11.618;2023-10-13T15:28:15;26.30;72.30
39925;DHT22;25592;49.986;11.618;2023-10-13T15:31:12;26.20;72.30
39925;DHT22;25592;49.986;11.618;2023-10-13T15:34:13;26.10;72.50
39925;DHT22;25592;49.986;11.618;2023-10-13T15:37:00;26.20;72.10
39925;DHT22;25592;49.986;11.618;2023-10-13T15:39:50;25.90;72.50
39925;DHT22;25592;49.986;11.618;2023-10-13T15:42:35;25.70;72.60
39925;DHT22;25592;49.986;11.618;2023-10-13T15:45:26;25.40;72.60
39925;DHT22;25592;49.986;11.618;2023-10-13T15:48:24;25.30;73.00
39925;DHT22;25592;49.986;11.618;2023-10-13T15:51:11;25.20;73.50
39925;DHT22;25592;49.986;11.618;2023-10-13T15:54:00;25.20;73.80
39925;DHT22;25592;49.986;11.618;2023-10-13T15:56:47;25.20;73.60
39925;DHT22;25592;49.986;11.618;2023-10-13T15:59:33;25.10;73.50
39925;DHT22;25592;49.986;11.618;2023-10-13T16:02:19;25.00;73.80
39925;DHT22;25592;49.986;11.618;2023-10-13T16:05:08;25.00;74.10
39925;DHT22;25592;49.986;11.618;2023-10-13T16:07:53;24.90;73.90
39925;DHT22;25592;49.986;11.618;2023-10-13T16:10:40;24.90;73.70
39925;DHT22;25592;49.986;11.618;2023-10-13T16:13:25;24.80;73.90
39925;DHT22;25592;49.986;11.618;2023-10-13T16:16:15;24.70;73.50
39925;DHT22;25592;49.986;11.618;2023-10-13T16:19:01;24.60;73.40
39925;DHT22;25592;49.986;11.618;2023-10-13T16:21:53;24.70;73.80
39925;DHT22;25592;49.986;11.618;2023-10-13T16:24:40;24.60;73.80
39925;DHT22;25592;49.986;11.618;2023-10-13T16:27:25;24.60;73.60
39925;DHT22;25592;49.986;11.618;2023-10-13T16:30:12;24.60;73.50
39925;DHT22;25592;49.986;11.618;2023-10-13T16:33:00;24.40;73.30
39925;DHT22;25592;49.986;11.618;2023-10-13T16:35:46;24.30;73.30
39925;DHT22;25592;49.986;11.618;2023-10-13T16:38:32;24.30;73.50
39925;DHT22;25592;49.986;11.618;2023-10-13T16:41:17;24.30;73.90
39925;DHT22;25592;49.986;11.618;2023-10-13T16:44:03;24.20;74.80
39925;DHT22;25592;49.986;11.618;2023-10-13T16:46:55;24.20;74.80
39925;DHT22;25592;49.986;11.618;2023-10-13T16:49:47;24.20;75.30
39925;DHT22;25592;49.986;11.618;2023-10-13T16:52:33;24.10;74.80
39925;DHT22;25592;49.986;11.618;2023-10-13T16:55:18;24.00;74.40
39925;DHT22;25592;49.986;11.618;2023-10-13T16:58:05;23.90;74.40
39925;DHT22;25592;49.986;11.618;2023-10-13T17:00:51;23.90;74.60
39925;DHT22;25592;49.986;11.618;2023-10-13T17:03:40;23.90;74.60
39925;DHT22;25592;49.986;11.618;2023-10-13T17:06:25;23.90;74.40
39925;DHT22;25592;49.986;11.618;2023-10-13T17:09:11;23.80;73.90
39925;DHT22;25592;49.986;11.618;2023-10-13T17:11:57;23.80;74.30
39925;DHT22;25592;49.986;11.618;2023-10-13T17:14:42;23.70;73.70
39925;DHT22;25592;49.986;11.618;2023-10-13T17:17:29;23.70;74.10
39925;DHT22;25592;49.986;11.618;2023-10-13T17:20:15;23.60;74.00
39925;DHT22;25592;49.986;11.618;2023-10-13T17:23:03;23.60;73.60
39925;DHT22;25592;49.986;11.618;2023-10-13T17:25:49;23.50;73.50
39925;DHT22;25592;49.986;11.618;2023-10-13T17:28:35;23.50;73.60
39925;DHT22;25592;49.986;11.618;2023-10-13T17:31:21;23.50;73.80
39925;DHT22;25592;49.986;11.618;2023-10-13T17:34:06;23.40;72.90
39925;DHT22;25592;49.986;11.618;2023-10-13T17:36:52;23.30;73.40
39925;DHT22;25592;49.986;11.618;2023-10-13T17:39:39;23.30;73.10
39925;DHT22;25592;49.986;11.618;2023-10-13T17:42:29;23.30;73.70
39925;DHT22;25592;49.986;11.618;2023-10-13T17:45:15;23.30;73.80
39925;DHT22;25592;49.986;11.618;2023-10-13T17:48:01;23.30;74.30
39925;DHT22;25592;49.986;11.618;2023-10-13T17:50:46;23.30;75.50